sensor_id;sensor_type;location;lat;lon;timestamp;P1;durP1;ratioP1;P2;durP2;ratioP2
68608;SDS011;55581;46.718;7.690;2023-02-01T00:01:28;6.20;;;2.50;;
68608;SDS011;55581;46.718;7.690;2023-02-01T00:03:54;6.47;;;2.60;;
68608;SDS011;55581;46.718;7.690;2023-02-01T00:06:21;10.23;;;2.45;;
68608;SDS011;55581;46.718;7.690;2023-02-01T00:08:47;6.43;;;2.57;;
68608;SDS011;55581;46.718;7.690;2023-02-01T00:11:12;5.93;;;2.17;;
68608;SDS011;55581;46.718;7.690;2023-02-01T00:13:41;5.80;;;1.98;;
68608;SDS011;55581;46.718;7.690;2023-02-01T00:16:11;6.53;;;2.08;;
68608;SDS011;55581;46.718;7.690;2023-02-01T00:18:42;7.63;;;2.23;;
68608;SDS011;55581;46.718;7.690;2023-02-01T00:21:08;5.68;;;1.90;;
68608;SDS011;55581;46.718;7.690;2023-02-01T00:23:35;5.57;;;2.22;;
68608;SDS011;55581;46.718;7.690;2023-02-01T00:26:02;6.88;;;2.63;;
68608;SDS011;55581;46.718;7.690;2023-02-01T00:28:28;7.63;;;2.60;;
68608;SDS011;55581;46.718;7.690;2023-02-01T00:31:02;7.07;;;2.10;;
68608;SDS011;55581;46.718;7.690;2023-02-01T00:33:29;6.82;;;2.38;;
68608;SDS011;55581;46.718;7.690;2023-02-01T00:35:58;6.95;;;1.98;;
68608;SDS011;55581;46.718;7.690;2023-02-01T00:38:27;8.32;;;1.70;;
68608;SDS011;55581;46.718;7.690;2023-02-01T00:41:06;4.70;;;1.40;;
68608;SDS011;55581;46.718;7.690;2023-02-01T00:43:35;6.60;;;1.52;;
68608;SDS011;55581;46.718;7.690;2023-02-01T00:46:04;5.18;;;1.38;;
68608;SDS011;55581;46.718;7.690;2023-02-01T00:48:29;5.83;;;1.80;;
68608;SDS011;55581;46.718;7.690;2023-02-01T00:50:59;5.38;;;1.67;;
68608;SDS011;55581;46.718;7.690;2023-02-01T00:53:25;6.30;;;2.13;;
68608;SDS011;55581;46.718;7.690;2023-02-01T00:55:51;6.17;;;1.90;;
68608;SDS011;55581;46.718;7.690;2023-02-01T00:58:16;5.63;;;2.40;;
68608;SDS011;55581;46.718;7.690;2023-02-01T01:00:42;8.02;;;2.65;;
68608;SDS011;55581;46.718;7.690;2023-02-01T01:03:07;7.80;;;3.07;;
68608;SDS011;55581;46.718;7.690;2023-02-01T01:05:45;7.13;;;2.35;;
68608;SDS011;55581;46.718;7.690;2023-02-01T01:08:12;6.67;;;2.93;;
68608;SDS011;55581;46.718;7.690;2023-02-01T01:10:38;6.95;;;2.58;;
68608;SDS011;55581;46.718;7.690;2023-02-01T01:13:03;8.07;;;2.67;;
68608;SDS011;55581;46.718;7.690;2023-02-01T01:15:29;6.67;;;2.33;;
68608;SDS011;55581;46.718;7.690;2023-02-01T01:17:55;9.27;;;2.60;;
68608;SDS011;55581;46.718;7.690;2023-02-01T01:20:20;9.87;;;2.60;;
68608;SDS011;55581;46.718;7.690;2023-02-01T01:22:48;8.25;;;2.90;;
68608;SDS011;55581;46.718;7.690;2023-02-01T01:25:13;7.63;;;2.87;;
68608;SDS011;55581;46.718;7.690;2023-02-01T01:27:39;9.10;;;3.10;;
68608;SDS011;55581;46.718;7.690;2023-02-01T01:30:05;8.77;;;3.40;;
68608;SDS011;55581;46.718;7.690;2023-02-01T01:32:31;7.35;;;2.42;;
68608;SDS011;55581;46.718;7.690;2023-02-01T01:34:56;7.97;;;2.37;;
68608;SDS011;55581;46.718;7.690;2023-02-01T01:37:22;7.20;;;2.53;;
68608;SDS011;55581;46.718;7.690;2023-02-01T01:39:47;7.10;;;2.40;;
68608;SDS011;55581;46.718;7.690;2023-02-01T01:42:13;11.10;;;2.50;;
68608;SDS011;55581;46.718;7.690;2023-02-01T01:47:31;6.10;;;2.50;;
68608;SDS011;55581;46.718;7.690;2023-02-01T01:50:04;6.20;;;2.40;;
68608;SDS011;55581;46.718;7.690;2023-02-01T01:52:32;8.15;;;2.13;;
68608;SDS011;55581;46.718;7.690;2023-02-01T01:54:59;6.38;;;2.35;;
68608;SDS011;55581;46.718;7.690;2023-02-01T01:57:29;5.97;;;2.13;;
68608;SDS011;55581;46.718;7.690;2023-02-01T02:00:12;7.05;;;2.60;;
68608;SDS011;55581;46.718;7.690;2023-02-01T02:02:40;10.98;;;2.60;;
68608;SDS011;55581;46.718;7.690;2023-02-01T02:05:10;6.53;;;2.30;;
68608;SDS011;55581;46.718;7.690;2023-02-01T02:07:37;7.63;;;2.60;;
68608;SDS011;55581;46.718;7.690;2023-02-01T02:10:06;7.57;;;3.23;;
68608;SDS011;55581;46.718;7.690;2023-02-01T02:12:38;7.40;;;2.80;;
68608;SDS011;55581;46.718;7.690;2023-02-01T02:15:10;6.55;;;2.53;;
68608;SDS011;55581;46.718;7.690;2023-02-01T02:33:53;8.77;;;3.30;;
68608;SDS011;55581;46.718;7.690;2023-02-01T02:40:04;8.70;;;3.53;;
68608;SDS011;55581;46.718;7.690;2023-02-01T02:42:46;8.48;;;3.30;;
68608;SDS011;55581;46.718;7.690;2023-02-01T02:49:13;7.90;;;3.00;;
68608;SDS011;55581;46.718;7.690;2023-02-01T02:51:46;7.67;;;2.57;;
68608;SDS011;55581;46.718;7.690;2023-02-01T02:54:39;7.68;;;2.83;;
68608;SDS011;55581;46.718;7.690;2023-02-01T02:57:12;6.57;;;2.75;;
68608;SDS011;55581;46.718;7.690;2023-02-01T02:59:59;11.32;;;3.25;;
68608;SDS011;55581;46.718;7.690;2023-02-01T03:02:46;8.32;;;3.08;;
68608;SDS011;55581;46.718;7.690;2023-02-01T03:05:39;5.97;;;2.17;;
68608;SDS011;55581;46.718;7.690;2023-02-01T03:08:11;6.00;;;1.90;;
68608;SDS011;55581;46.718;7.690;2023-02-01T03:13:24;7.47;;;2.30;;
68608;SDS011;55581;46.718;7.690;2023-02-01T03:16:06;6.03;;;1.75;;
68608;SDS011;55581;46.718;7.690;2023-02-01T03:24:00;7.15;;;2.28;;
68608;SDS011;55581;46.718;7.690;2023-02-01T03:26:31;6.47;;;2.30;;
68608;SDS011;55581;46.718;7.690;2023-02-01T03:29:03;6.03;;;2.50;;
68608;SDS011;55581;46.718;7.690;2023-02-01T03:31:36;7.37;;;2.47;;
68608;SDS011;55581;46.718;7.690;2023-02-01T03:34:01;7.30;;;2.30;;
68608;SDS011;55581;46.718;7.690;2023-02-01T03:36:35;8.03;;;2.67;;
68608;SDS011;55581;46.718;7.690;2023-02-01T03:41:45;6.57;;;2.47;;
68608;SDS011;55581;46.718;7.690;2023-02-01T03:45:18;7.35;;;2.10;;
68608;SDS011;55581;46.718;7.690;2023-02-01T03:47:29;7.50;;;2.65;;
68608;SDS011;55581;46.718;7.690;2023-02-01T03:50:04;7.47;;;2.50;;
68608;SDS011;55581;46.718;7.690;2023-02-01T03:52:38;6.03;;;2.00;;
68608;SDS011;55581;46.718;7.690;2023-02-01T03:55:07;6.78;;;2.40;;
68608;SDS011;55581;46.718;7.690;2023-02-01T03:57:37;6.43;;;2.47;;
68608;SDS011;55581;46.718;7.690;2023-02-01T04:00:07;6.70;;;2.13;;
68608;SDS011;55581;46.718;7.690;2023-02-01T04:02:36;6.40;;;2.30;;
68608;SDS011;55581;46.718;7.690;2023-02-01T04:05:02;6.68;;;2.20;;
68608;SDS011;55581;46.718;7.690;2023-02-01T04:07:27;7.37;;;2.30;;
68608;SDS011;55581;46.718;7.690;2023-02-01T04:09:53;5.93;;;2.43;;
68608;SDS011;55581;46.718;7.690;2023-02-01T04:12:18;6.30;;;2.10;;
68608;SDS011;55581;46.718;7.690;2023-02-01T04:14:46;9.63;;;2.88;;
68608;SDS011;55581;46.718;7.690;2023-02-01T04:17:11;11.73;;;3.03;;
68608;SDS011;55581;46.718;7.690;2023-02-01T04:19:36;6.70;;;2.88;;
68608;SDS011;55581;46.718;7.690;2023-02-01T04:22:02;6.07;;;2.60;;
68608;SDS011;55581;46.718;7.690;2023-02-01T04:24:27;10.83;;;3.43;;
68608;SDS011;55581;46.718;7.690;2023-02-01T04:26:55;6.33;;;2.90;;
68608;SDS011;55581;46.718;7.690;2023-02-01T04:29:21;7.90;;;3.20;;
68608;SDS011;55581;46.718;7.690;2023-02-01T04:31:46;7.00;;;2.50;;
68608;SDS011;55581;46.718;7.690;2023-02-01T04:34:11;6.37;;;2.67;;
68608;SDS011;55581;46.718;7.690;2023-02-01T04:36:37;8.38;;;2.53;;
68608;SDS011;55581;46.718;7.690;2023-02-01T04:39:02;6.87;;;2.50;;
68608;SDS011;55581;46.718;7.690;2023-02-01T04:41:28;7.30;;;2.50;;
68608;SDS011;55581;46.718;7.690;2023-02-01T04:43:54;6.55;;;2.42;;
68608;SDS011;55581;46.718;7.690;2023-02-01T04:46:19;6.43;;;2.70;;
68608;SDS011;55581;46.718;7.690;2023-02-01T04:48:47;7.40;;;2.47;;
68608;SDS011;55581;46.718;7.690;2023-02-01T04:51:12;6.13;;;1.90;;
68608;SDS011;55581;46.718;7.690;2023-02-01T04:53:38;7.05;;;2.33;;
68608;SDS011;55581;46.718;7.690;2023-02-01T04:56:06;8.23;;;2.60;;
68608;SDS011;55581;46.718;7.690;2023-02-01T04:58:31;6.57;;;2.30;;
68608;SDS011;55581;46.718;7.690;2023-02-01T05:00:57;7.23;;;2.23;;
68608;SDS011;55581;46.718;7.690;2023-02-01T05:03:29;5.97;;;1.67;;
68608;SDS011;55581;46.718;7.690;2023-02-01T05:05:54;5.13;;;2.10;;
68608;SDS011;55581;46.718;7.690;2023-02-01T05:08:19;6.83;;;2.00;;
68608;SDS011;55581;46.718;7.690;2023-02-01T05:10:47;6.60;;;2.20;;
68608;SDS011;55581;46.718;7.690;2023-02-01T05:13:13;5.90;;;2.10;;
68608;SDS011;55581;46.718;7.690;2023-02-01T05:15:57;9.63;;;2.40;;
68608;SDS011;55581;46.718;7.690;2023-02-01T05:18:24;7.07;;;2.97;;
68608;SDS011;55581;46.718;7.690;2023-02-01T05:20:49;8.80;;;3.17;;
68608;SDS011;55581;46.718;7.690;2023-02-01T05:23:15;7.63;;;2.70;;
68608;SDS011;55581;46.718;7.690;2023-02-01T05:25:43;7.03;;;2.60;;
68608;SDS011;55581;46.718;7.690;2023-02-01T05:28:08;10.20;;;2.55;;
68608;SDS011;55581;46.718;7.690;2023-02-01T05:30:36;6.73;;;2.30;;
68608;SDS011;55581;46.718;7.690;2023-02-01T05:33:02;6.82;;;2.20;;
68608;SDS011;55581;46.718;7.690;2023-02-01T05:35:28;7.90;;;1.90;;
68608;SDS011;55581;46.718;7.690;2023-02-01T05:37:53;7.70;;;2.73;;
68608;SDS011;55581;46.718;7.690;2023-02-01T05:40:18;6.10;;;1.73;;
68608;SDS011;55581;46.718;7.690;2023-02-01T05:42:44;7.55;;;2.33;;
68608;SDS011;55581;46.718;7.690;2023-02-01T05:45:09;6.47;;;1.80;;
68608;SDS011;55581;46.718;7.690;2023-02-01T05:47:35;5.90;;;1.73;;
68608;SDS011;55581;46.718;7.690;2023-02-01T05:50:03;6.85;;;2.00;;
68608;SDS011;55581;46.718;7.690;2023-02-01T05:52:30;7.10;;;1.85;;
68608;SDS011;55581;46.718;7.690;2023-02-01T05:54:55;8.10;;;2.77;;
68608;SDS011;55581;46.718;7.690;2023-02-01T05:57:21;5.83;;;1.50;;
68608;SDS011;55581;46.718;7.690;2023-02-01T05:59:46;7.22;;;2.00;;
68608;SDS011;55581;46.718;7.690;2023-02-01T06:02:14;10.03;;;3.03;;
68608;SDS011;55581;46.718;7.690;2023-02-01T06:04:40;6.53;;;2.38;;
68608;SDS011;55581;46.718;7.690;2023-02-01T06:07:06;7.47;;;2.57;;
68608;SDS011;55581;46.718;7.690;2023-02-01T06:09:33;7.50;;;2.63;;
68608;SDS011;55581;46.718;7.690;2023-02-01T06:11:59;4.95;;;1.75;;
68608;SDS011;55581;46.718;7.690;2023-02-01T06:14:26;7.45;;;2.05;;
68608;SDS011;55581;46.718;7.690;2023-02-01T06:16:52;5.43;;;2.47;;
68608;SDS011;55581;46.718;7.690;2023-02-01T06:19:19;8.03;;;2.90;;
68608;SDS011;55581;46.718;7.690;2023-02-01T06:21:44;7.80;;;3.33;;
68608;SDS011;55581;46.718;7.690;2023-02-01T06:24:10;8.00;;;3.03;;
68608;SDS011;55581;46.718;7.690;2023-02-01T06:26:40;7.37;;;3.07;;
68608;SDS011;55581;46.718;7.690;2023-02-01T06:29:06;7.78;;;2.50;;
68608;SDS011;55581;46.718;7.690;2023-02-01T06:31:32;6.90;;;2.55;;
68608;SDS011;55581;46.718;7.690;2023-02-01T06:33:58;6.30;;;2.67;;
68608;SDS011;55581;46.718;7.690;2023-02-01T06:36:24;8.87;;;2.53;;
68608;SDS011;55581;46.718;7.690;2023-02-01T06:38:49;6.70;;;2.73;;
68608;SDS011;55581;46.718;7.690;2023-02-01T06:41:17;7.78;;;2.90;;
68608;SDS011;55581;46.718;7.690;2023-02-01T06:43:45;6.88;;;2.33;;
68608;SDS011;55581;46.718;7.690;2023-02-01T06:46:11;9.30;;;2.27;;
68608;SDS011;55581;46.718;7.690;2023-02-01T06:48:37;7.45;;;2.90;;
68608;SDS011;55581;46.718;7.690;2023-02-01T06:51:03;6.03;;;2.63;;
68608;SDS011;55581;46.718;7.690;2023-02-01T06:53:29;7.27;;;2.53;;
68608;SDS011;55581;46.718;7.690;2023-02-01T06:56:00;6.18;;;2.13;;
68608;SDS011;55581;46.718;7.690;2023-02-01T06:58:30;8.45;;;2.70;;
68608;SDS011;55581;46.718;7.690;2023-02-01T07:01:04;6.68;;;2.53;;
68608;SDS011;55581;46.718;7.690;2023-02-01T07:03:30;7.25;;;2.67;;
68608;SDS011;55581;46.718;7.690;2023-02-01T07:05:56;8.80;;;2.70;;
68608;SDS011;55581;46.718;7.690;2023-02-01T07:08:29;6.85;;;2.58;;
68608;SDS011;55581;46.718;7.690;2023-02-01T07:10:55;8.23;;;3.33;;
68608;SDS011;55581;46.718;7.690;2023-02-01T07:13:21;7.38;;;2.90;;
68608;SDS011;55581;46.718;7.690;2023-02-01T07:15:46;7.03;;;2.83;;
68608;SDS011;55581;46.718;7.690;2023-02-01T07:18:12;6.60;;;2.50;;
68608;SDS011;55581;46.718;7.690;2023-02-01T07:20:39;8.27;;;2.87;;
68608;SDS011;55581;46.718;7.690;2023-02-01T07:23:05;6.47;;;2.50;;
68608;SDS011;55581;46.718;7.690;2023-02-01T07:25:30;6.60;;;2.10;;
68608;SDS011;55581;46.718;7.690;2023-02-01T07:27:55;6.00;;;2.15;;
68608;SDS011;55581;46.718;7.690;2023-02-01T07:30:21;7.37;;;2.53;;
68608;SDS011;55581;46.718;7.690;2023-02-01T07:32:47;7.60;;;2.38;;
68608;SDS011;55581;46.718;7.690;2023-02-01T07:35:12;7.77;;;2.50;;
68608;SDS011;55581;46.718;7.690;2023-02-01T07:37:39;7.07;;;2.55;;
68608;SDS011;55581;46.718;7.690;2023-02-01T07:40:04;7.73;;;2.77;;
68608;SDS011;55581;46.718;7.690;2023-02-01T07:42:30;7.05;;;2.85;;
68608;SDS011;55581;46.718;7.690;2023-02-01T07:44:56;6.40;;;2.80;;
68608;SDS011;55581;46.718;7.690;2023-02-01T07:47:21;6.77;;;2.97;;
68608;SDS011;55581;46.718;7.690;2023-02-01T07:49:49;8.20;;;2.83;;
68608;SDS011;55581;46.718;7.690;2023-02-01T07:52:14;10.63;;;3.37;;
68608;SDS011;55581;46.718;7.690;2023-02-01T07:54:45;7.43;;;3.08;;
68608;SDS011;55581;46.718;7.690;2023-02-01T07:57:10;11.23;;;4.00;;
68608;SDS011;55581;46.718;7.690;2023-02-01T07:59:36;9.90;;;2.78;;
68608;SDS011;55581;46.718;7.690;2023-02-01T08:02:24;10.18;;;3.20;;
68608;SDS011;55581;46.718;7.690;2023-02-01T08:04:49;8.80;;;3.13;;
68608;SDS011;55581;46.718;7.690;2023-02-01T08:07:15;7.30;;;2.73;;
68608;SDS011;55581;46.718;7.690;2023-02-01T08:09:43;8.60;;;2.88;;
68608;SDS011;55581;46.718;7.690;2023-02-01T08:12:08;7.27;;;2.83;;
68608;SDS011;55581;46.718;7.690;2023-02-01T08:14:34;7.70;;;3.47;;
68608;SDS011;55581;46.718;7.690;2023-02-01T08:16:59;8.77;;;3.40;;
68608;SDS011;55581;46.718;7.690;2023-02-01T08:19:24;8.03;;;2.60;;
68608;SDS011;55581;46.718;7.690;2023-02-01T08:21:50;6.10;;;2.30;;
68608;SDS011;55581;46.718;7.690;2023-02-01T08:24:15;6.47;;;2.67;;
68608;SDS011;55581;46.718;7.690;2023-02-01T08:26:41;7.20;;;2.80;;
68608;SDS011;55581;46.718;7.690;2023-02-01T08:29:06;6.07;;;2.50;;
68608;SDS011;55581;46.718;7.690;2023-02-01T08:31:33;6.95;;;2.50;;
68608;SDS011;55581;46.718;7.690;2023-02-01T08:33:59;7.10;;;2.80;;
68608;SDS011;55581;46.718;7.690;2023-02-01T08:36:29;7.60;;;3.08;;
68608;SDS011;55581;46.718;7.690;2023-02-01T08:38:55;7.57;;;3.28;;
68608;SDS011;55581;46.718;7.690;2023-02-01T08:41:22;7.00;;;3.00;;
68608;SDS011;55581;46.718;7.690;2023-02-01T08:43:52;7.72;;;2.70;;
68608;SDS011;55581;46.718;7.690;2023-02-01T08:46:19;7.90;;;2.47;;
68608;SDS011;55581;46.718;7.690;2023-02-01T08:48:47;6.18;;;2.33;;
68608;SDS011;55581;46.718;7.690;2023-02-01T08:51:14;7.27;;;2.10;;
68608;SDS011;55581;46.718;7.690;2023-02-01T08:53:40;7.72;;;2.60;;
68608;SDS011;55581;46.718;7.690;2023-02-01T08:56:06;7.97;;;2.42;;
68608;SDS011;55581;46.718;7.690;2023-02-01T08:58:35;9.10;;;2.50;;
68608;SDS011;55581;46.718;7.690;2023-02-01T09:01:03;9.10;;;2.70;;
68608;SDS011;55581;46.718;7.690;2023-02-01T09:03:35;6.77;;;2.03;;
68608;SDS011;55581;46.718;7.690;2023-02-01T09:06:02;7.78;;;2.42;;
68608;SDS011;55581;46.718;7.690;2023-02-01T09:08:28;10.50;;;2.25;;
68608;SDS011;55581;46.718;7.690;2023-02-01T09:10:58;7.83;;;2.83;;
68608;SDS011;55581;46.718;7.690;2023-02-01T09:13:24;8.25;;;2.35;;
68608;SDS011;55581;46.718;7.690;2023-02-01T09:15:50;8.90;;;2.90;;
68608;SDS011;55581;46.718;7.690;2023-02-01T09:18:16;6.13;;;2.13;;
68608;SDS011;55581;46.718;7.690;2023-02-01T09:20:41;6.10;;;2.30;;
68608;SDS011;55581;46.718;7.690;2023-02-01T09:23:09;10.25;;;3.00;;
68608;SDS011;55581;46.718;7.690;2023-02-01T09:25:36;8.23;;;3.30;;
68608;SDS011;55581;46.718;7.690;2023-02-01T09:28:03;8.85;;;3.45;;
68608;SDS011;55581;46.718;7.690;2023-02-01T09:30:30;9.35;;;3.33;;
68608;SDS011;55581;46.718;7.690;2023-02-01T09:33:00;6.93;;;3.10;;
68608;SDS011;55581;46.718;7.690;2023-02-01T09:35:25;7.53;;;3.17;;
68608;SDS011;55581;46.718;7.690;2023-02-01T09:37:53;9.95;;;3.80;;
68608;SDS011;55581;46.718;7.690;2023-02-01T09:40:19;6.60;;;2.50;;
68608;SDS011;55581;46.718;7.690;2023-02-01T09:48:02;7.40;;;2.83;;
68608;SDS011;55581;46.718;7.690;2023-02-01T09:50:37;6.63;;;2.67;;
68608;SDS011;55581;46.718;7.690;2023-02-01T09:56:18;8.60;;;2.80;;
68608;SDS011;55581;46.718;7.690;2023-02-01T09:59:06;7.95;;;2.97;;
68608;SDS011;55581;46.718;7.690;2023-02-01T10:01:33;8.30;;;3.42;;
68608;SDS011;55581;46.718;7.690;2023-02-01T10:04:03;7.90;;;3.28;;
68608;SDS011;55581;46.718;7.690;2023-02-01T10:15:05;6.97;;;3.20;;
68608;SDS011;55581;46.718;7.690;2023-02-01T10:26:12;10.80;;;3.40;;
68608;SDS011;55581;46.718;7.690;2023-02-01T10:28:52;9.32;;;3.33;;
68608;SDS011;55581;46.718;7.690;2023-02-01T10:31:21;7.03;;;2.97;;
68608;SDS011;55581;46.718;7.690;2023-02-01T10:33:50;7.90;;;3.10;;
68608;SDS011;55581;46.718;7.690;2023-02-01T10:38:55;9.38;;;4.20;;
68608;SDS011;55581;46.718;7.690;2023-02-01T10:41:22;6.95;;;2.60;;
68608;SDS011;55581;46.718;7.690;2023-02-01T10:43:51;7.38;;;2.70;;
68608;SDS011;55581;46.718;7.690;2023-02-01T10:46:20;8.05;;;3.33;;
68608;SDS011;55581;46.718;7.690;2023-02-01T10:48:46;8.07;;;2.70;;
68608;SDS011;55581;46.718;7.690;2023-02-01T10:54:00;8.85;;;2.70;;
68608;SDS011;55581;46.718;7.690;2023-02-01T10:56:28;6.75;;;2.63;;
68608;SDS011;55581;46.718;7.690;2023-02-01T10:59:01;5.60;;;2.50;;
68608;SDS011;55581;46.718;7.690;2023-02-01T11:01:39;6.30;;;2.60;;
68608;SDS011;55581;46.718;7.690;2023-02-01T11:04:24;5.80;;;2.38;;
68608;SDS011;55581;46.718;7.690;2023-02-01T11:09:50;6.25;;;2.90;;
68608;SDS011;55581;46.718;7.690;2023-02-01T11:17:40;4.95;;;2.05;;
68608;SDS011;55581;46.718;7.690;2023-02-01T11:20:13;6.57;;;2.10;;
68608;SDS011;55581;46.718;7.690;2023-02-01T11:23:01;7.05;;;2.63;;
68608;SDS011;55581;46.718;7.690;2023-02-01T11:25:27;6.17;;;2.33;;
68608;SDS011;55581;46.718;7.690;2023-02-01T11:27:54;4.93;;;2.10;;
68608;SDS011;55581;46.718;7.690;2023-02-01T11:30:42;6.10;;;2.60;;
68608;SDS011;55581;46.718;7.690;2023-02-01T11:33:12;7.55;;;2.20;;
68608;SDS011;55581;46.718;7.690;2023-02-01T11:35:40;5.80;;;2.20;;
68608;SDS011;55581;46.718;7.690;2023-02-01T11:38:11;7.93;;;2.53;;
68608;SDS011;55581;46.718;7.690;2023-02-01T11:40:44;6.93;;;2.97;;
68608;SDS011;55581;46.718;7.690;2023-02-01T11:43:13;7.20;;;2.20;;
68608;SDS011;55581;46.718;7.690;2023-02-01T11:45:40;6.80;;;2.67;;
68608;SDS011;55581;46.718;7.690;2023-02-01T11:48:10;7.77;;;2.37;;
68608;SDS011;55581;46.718;7.690;2023-02-01T11:50:50;7.07;;;2.72;;
68608;SDS011;55581;46.718;7.690;2023-02-01T11:58:48;5.85;;;1.80;;
68608;SDS011;55581;46.718;7.690;2023-02-01T12:06:40;4.45;;;1.38;;
68608;SDS011;55581;46.718;7.690;2023-02-01T12:14:59;6.07;;;1.97;;
68608;SDS011;55581;46.718;7.690;2023-02-01T12:28:15;5.87;;;1.90;;
68608;SDS011;55581;46.718;7.690;2023-02-01T12:36:21;6.00;;;1.90;;
68608;SDS011;55581;46.718;7.690;2023-02-01T12:42:10;5.40;;;1.97;;
68608;SDS011;55581;46.718;7.690;2023-02-01T12:44:52;6.50;;;2.10;;
68608;SDS011;55581;46.718;7.690;2023-02-01T12:47:30;7.32;;;2.40;;
68608;SDS011;55581;46.718;7.690;2023-02-01T12:50:02;4.88;;;1.80;;
68608;SDS011;55581;46.718;7.690;2023-02-01T12:52:58;4.22;;;1.60;;
68608;SDS011;55581;46.718;7.690;2023-02-01T12:55:35;4.43;;;1.30;;
68608;SDS011;55581;46.718;7.690;2023-02-01T12:58:12;5.70;;;1.60;;
68608;SDS011;55581;46.718;7.690;2023-02-01T13:00:46;6.10;;;1.73;;
68608;SDS011;55581;46.718;7.690;2023-02-01T13:06:13;7.57;;;2.25;;
68608;SDS011;55581;46.718;7.690;2023-02-01T13:09:07;4.13;;;1.47;;
68608;SDS011;55581;46.718;7.690;2023-02-01T13:11:44;6.38;;;1.45;;
68608;SDS011;55581;46.718;7.690;2023-02-01T13:17:09;2.88;;;0.55;;
68608;SDS011;55581;46.718;7.690;2023-02-01T13:22:47;1.90;;;0.33;;
68608;SDS011;55581;46.718;7.690;2023-02-01T13:25:34;1.98;;;0.40;;
68608;SDS011;55581;46.718;7.690;2023-02-01T13:28:11;2.40;;;0.35;;
68608;SDS011;55581;46.718;7.690;2023-02-01T13:44:45;1.50;;;0.20;;
68608;SDS011;55581;46.718;7.690;2023-02-01T13:50:12;2.43;;;0.30;;
68608;SDS011;55581;46.718;7.690;2023-02-01T13:52:45;2.10;;;0.50;;
68608;SDS011;55581;46.718;7.690;2023-02-01T13:58:28;2.42;;;0.40;;
68608;SDS011;55581;46.718;7.690;2023-02-01T14:03:44;2.13;;;0.30;;
68608;SDS011;55581;46.718;7.690;2023-02-01T14:17:29;2.10;;;0.33;;
68608;SDS011;55581;46.718;7.690;2023-02-01T14:19:27;2.88;;;0.40;;
68608;SDS011;55581;46.718;7.690;2023-02-01T14:21:55;3.10;;;0.35;;
68608;SDS011;55581;46.718;7.690;2023-02-01T14:24:27;2.65;;;0.40;;
68608;SDS011;55581;46.718;7.690;2023-02-01T14:26:58;1.65;;;0.30;;
68608;SDS011;55581;46.718;7.690;2023-02-01T14:29:36;2.57;;;0.37;;
68608;SDS011;55581;46.718;7.690;2023-02-01T14:32:22;2.85;;;0.38;;
68608;SDS011;55581;46.718;7.690;2023-02-01T14:34:53;2.42;;;0.40;;
68608;SDS011;55581;46.718;7.690;2023-02-01T14:37:24;2.08;;;0.45;;
68608;SDS011;55581;46.718;7.690;2023-02-01T14:40:03;1.85;;;0.30;;
68608;SDS011;55581;46.718;7.690;2023-02-01T14:42:44;2.20;;;0.40;;
68608;SDS011;55581;46.718;7.690;2023-02-01T14:47:46;2.10;;;0.30;;
68608;SDS011;55581;46.718;7.690;2023-02-01T15:06:27;2.28;;;0.40;;
68608;SDS011;55581;46.718;7.690;2023-02-01T15:09:00;2.17;;;0.40;;
68608;SDS011;55581;46.718;7.690;2023-02-01T15:11:55;2.85;;;0.52;;
68608;SDS011;55581;46.718;7.690;2023-02-01T15:14:20;4.15;;;0.50;;
68608;SDS011;55581;46.718;7.690;2023-02-01T15:16:48;2.28;;;0.50;;
68608;SDS011;55581;46.718;7.690;2023-02-01T15:19:19;2.38;;;0.50;;
68608;SDS011;55581;46.718;7.690;2023-02-01T15:21:49;4.47;;;0.93;;
68608;SDS011;55581;46.718;7.690;2023-02-01T15:24:21;2.97;;;0.65;;
68608;SDS011;55581;46.718;7.690;2023-02-01T15:26:47;4.53;;;0.70;;
68608;SDS011;55581;46.718;7.690;2023-02-01T15:29:13;3.88;;;0.80;;
68608;SDS011;55581;46.718;7.690;2023-02-01T15:31:44;3.50;;;0.93;;
68608;SDS011;55581;46.718;7.690;2023-02-01T15:34:11;3.80;;;0.90;;
68608;SDS011;55581;46.718;7.690;2023-02-01T15:36:37;3.78;;;1.10;;
68608;SDS011;55581;46.718;7.690;2023-02-01T15:41:51;3.78;;;1.13;;
68608;SDS011;55581;46.718;7.690;2023-02-01T15:44:38;4.22;;;1.00;;
68608;SDS011;55581;46.718;7.690;2023-02-01T15:47:12;4.05;;;1.13;;
68608;SDS011;55581;46.718;7.690;2023-02-01T15:49:53;3.87;;;1.30;;
68608;SDS011;55581;46.718;7.690;2023-02-01T15:52:24;4.78;;;1.50;;
68608;SDS011;55581;46.718;7.690;2023-02-01T15:55:00;5.68;;;2.10;;
68608;SDS011;55581;46.718;7.690;2023-02-01T15:57:36;4.45;;;1.50;;
68608;SDS011;55581;46.718;7.690;2023-02-01T16:00:06;6.32;;;1.85;;
68608;SDS011;55581;46.718;7.690;2023-02-01T16:02:51;4.73;;;1.70;;
68608;SDS011;55581;46.718;7.690;2023-02-01T16:05:28;5.10;;;1.60;;
68608;SDS011;55581;46.718;7.690;2023-02-01T16:07:56;4.85;;;1.20;;
68608;SDS011;55581;46.718;7.690;2023-02-01T16:10:28;3.92;;;1.25;;
68608;SDS011;55581;46.718;7.690;2023-02-01T16:12:54;4.25;;;1.33;;
68608;SDS011;55581;46.718;7.690;2023-02-01T16:15:23;3.43;;;0.97;;
68608;SDS011;55581;46.718;7.690;2023-02-01T16:17:49;4.57;;;1.10;;
68608;SDS011;55581;46.718;7.690;2023-02-01T16:20:14;3.63;;;1.20;;
68608;SDS011;55581;46.718;7.690;2023-02-01T16:22:40;4.00;;;1.20;;
68608;SDS011;55581;46.718;7.690;2023-02-01T16:25:05;4.93;;;1.40;;
68608;SDS011;55581;46.718;7.690;2023-02-01T16:27:31;17.67;;;6.90;;
68608;SDS011;55581;46.718;7.690;2023-02-01T16:29:56;7.43;;;2.00;;
68608;SDS011;55581;46.718;7.690;2023-02-01T16:32:22;3.95;;;1.50;;
68608;SDS011;55581;46.718;7.690;2023-02-01T16:34:51;5.93;;;2.40;;
68608;SDS011;55581;46.718;7.690;2023-02-01T16:37:20;5.50;;;1.90;;
68608;SDS011;55581;46.718;7.690;2023-02-01T16:39:52;4.93;;;1.70;;
68608;SDS011;55581;46.718;7.690;2023-02-01T16:42:17;4.50;;;1.63;;
68608;SDS011;55581;46.718;7.690;2023-02-01T16:44:43;6.77;;;1.93;;
68608;SDS011;55581;46.718;7.690;2023-02-01T16:47:18;5.40;;;1.53;;
68608;SDS011;55581;46.718;7.690;2023-02-01T16:49:46;4.75;;;1.77;;
68608;SDS011;55581;46.718;7.690;2023-02-01T16:52:16;4.80;;;1.50;;
68608;SDS011;55581;46.718;7.690;2023-02-01T16:54:45;5.07;;;1.67;;
68608;SDS011;55581;46.718;7.690;2023-02-01T16:57:12;6.00;;;1.53;;
68608;SDS011;55581;46.718;7.690;2023-02-01T16:59:39;6.28;;;1.40;;
68608;SDS011;55581;46.718;7.690;2023-02-01T17:02:06;4.72;;;1.50;;
68608;SDS011;55581;46.718;7.690;2023-02-01T17:04:35;3.70;;;1.20;;
68608;SDS011;55581;46.718;7.690;2023-02-01T17:07:00;4.67;;;1.50;;
68608;SDS011;55581;46.718;7.690;2023-02-01T17:09:39;3.85;;;0.98;;
68608;SDS011;55581;46.718;7.690;2023-02-01T17:12:29;6.40;;;1.65;;
68608;SDS011;55581;46.718;7.690;2023-02-01T17:14:57;3.13;;;0.90;;
68608;SDS011;55581;46.718;7.690;2023-02-01T17:17:24;4.03;;;1.30;;
68608;SDS011;55581;46.718;7.690;2023-02-01T17:19:57;4.18;;;1.30;;
68608;SDS011;55581;46.718;7.690;2023-02-01T17:22:22;5.43;;;1.20;;
68608;SDS011;55581;46.718;7.690;2023-02-01T17:24:48;4.90;;;1.30;;
68608;SDS011;55581;46.718;7.690;2023-02-01T17:27:14;4.30;;;1.25;;
68608;SDS011;55581;46.718;7.690;2023-02-01T17:29:41;3.93;;;1.00;;
68608;SDS011;55581;46.718;7.690;2023-02-01T17:32:09;3.58;;;1.10;;
68608;SDS011;55581;46.718;7.690;2023-02-01T17:34:42;6.45;;;1.60;;
68608;SDS011;55581;46.718;7.690;2023-02-01T17:37:11;4.87;;;1.30;;
68608;SDS011;55581;46.718;7.690;2023-02-01T17:39:50;4.07;;;1.40;;
68608;SDS011;55581;46.718;7.690;2023-02-01T17:42:22;6.13;;;1.27;;
68608;SDS011;55581;46.718;7.690;2023-02-01T17:44:49;4.20;;;1.10;;
68608;SDS011;55581;46.718;7.690;2023-02-01T17:47:16;3.90;;;1.10;;
68608;SDS011;55581;46.718;7.690;2023-02-01T17:49:42;3.90;;;1.20;;
68608;SDS011;55581;46.718;7.690;2023-02-01T17:52:08;3.77;;;1.20;;
68608;SDS011;55581;46.718;7.690;2023-02-01T17:54:40;3.42;;;0.90;;
68608;SDS011;55581;46.718;7.690;2023-02-01T17:57:10;5.53;;;1.37;;
68608;SDS011;55581;46.718;7.690;2023-02-01T17:59:36;6.50;;;1.80;;